Terminal Aerodrome Forecast
Issued by NWS

Home | Current Version | Previous Version | Text Only | Print | Product List | Glossary On
Versions: 1 2 3 4 5 6 7 8 9 10 11 12 13
000
FTAK31 PAJN 301400 AAA
TAFAKT
TAF AMD
PAKT 301411Z 3014/3112 12004KT P6SM FEW005
      TEMPO 3014/3016 BKN005
     FM301600 32011KT P6SM SCT100
     FM310400 31005KT P6SM SKC
     FM310900 00000KT P6SM SKC
      AMD LTD TO CLD VIS AND WIND 3012/3015=

USA.gov is the U.S. government's official web portal to all federal, state and local government web resources and services.